createdAt,value
2022-07-31T00:01:19.317Z,26.74
2022-07-31T00:03:45.812Z,26.51
2022-07-31T00:06:14.358Z,26.59
2022-07-31T00:08:40.753Z,26.73
2022-07-31T00:11:09.280Z,26.75
2022-07-31T00:13:57.216Z,26.50
2022-07-31T00:16:22.211Z,25.95
2022-07-31T00:18:48.616Z,27.97
2022-07-31T00:21:15.013Z,27.31
2022-07-31T00:23:41.426Z,26.98
2022-07-31T00:26:07.827Z,26.66
2022-07-31T00:28:34.237Z,26.77
2022-07-31T00:31:00.687Z,26.79
2022-07-31T00:33:30.083Z,26.50
2022-07-31T00:35:56.552Z,26.71
2022-07-31T00:38:30.110Z,26.39
2022-07-31T00:40:56.734Z,26.43
2022-07-31T00:43:23.167Z,26.75
2022-07-31T00:45:58.587Z,26.61
2022-07-31T00:48:25.533Z,26.71
2022-07-31T00:50:54.280Z,27.45
2022-07-31T00:53:20.671Z,27.67
2022-07-31T00:55:51.205Z,27.17
2022-07-31T00:58:20.373Z,26.75
2022-07-31T01:00:46.949Z,26.96
2022-07-31T01:03:15.715Z,26.50
2022-07-31T01:05:42.105Z,26.50
2022-07-31T01:08:10.636Z,26.49
2022-07-31T01:10:37.012Z,26.52
2022-07-31T01:13:04.795Z,26.84
2022-07-31T01:15:31.217Z,26.53
2022-07-31T01:17:57.617Z,26.77
2022-07-31T01:20:24.007Z,26.58
2022-07-31T01:22:50.444Z,25.87
2022-07-31T01:25:16.831Z,28.15
2022-07-31T01:27:49.578Z,27.35
2022-07-31T01:30:16.458Z,26.92
2022-07-31T01:32:42.870Z,26.95
2022-07-31T01:35:09.335Z,26.47
2022-07-31T01:37:35.939Z,26.62
2022-07-31T01:40:02.332Z,26.52
2022-07-31T01:42:28.738Z,26.51
2022-07-31T01:44:55.197Z,26.75
2022-07-31T01:47:21.610Z,26.41
2022-07-31T01:49:50.325Z,26.55
2022-07-31T01:52:16.759Z,26.60
2022-07-31T01:54:43.145Z,26.56
2022-07-31T01:57:09.547Z,27.03
2022-07-31T01:59:36.049Z,27.96
2022-07-31T02:02:02.830Z,26.96
2022-07-31T02:04:29.354Z,26.70
2022-07-31T02:06:55.797Z,26.56
2022-07-31T02:09:22.191Z,26.67
2022-07-31T02:11:54.387Z,26.44
2022-07-31T02:14:35.241Z,26.60
2022-07-31T02:17:01.629Z,26.74
2022-07-31T02:19:28.005Z,26.56
2022-07-31T02:21:57.552Z,26.79
2022-07-31T02:24:25.808Z,26.62
2022-07-31T02:26:52.207Z,26.86
2022-07-31T02:29:20.385Z,25.91
2022-07-31T02:31:47.002Z,27.87
2022-07-31T02:34:30.197Z,27.37
2022-07-31T02:36:56.740Z,26.96
2022-07-31T02:39:26.479Z,26.58
2022-07-31T02:41:56.543Z,26.38
2022-07-31T02:44:27.132Z,26.82
2022-07-31T02:46:53.797Z,26.64
2022-07-31T02:49:20.305Z,26.79
2022-07-31T02:51:46.771Z,26.56
2022-07-31T02:54:13.613Z,26.71
2022-07-31T02:56:40.094Z,26.84
2022-07-31T02:59:06.499Z,26.62
2022-07-31T03:01:34.226Z,26.64
2022-07-31T03:04:00.651Z,27.26
2022-07-31T03:06:27.118Z,27.80
2022-07-31T03:08:54.640Z,27.16
2022-07-31T03:11:21.069Z,26.66
2022-07-31T03:13:47.451Z,26.77
2022-07-31T03:16:13.839Z,26.46
2022-07-31T03:18:40.376Z,26.65
2022-07-31T03:21:06.759Z,26.75
2022-07-31T03:23:33.173Z,26.52
2022-07-31T03:25:59.632Z,26.47
2022-07-31T03:28:26.041Z,26.71
2022-07-31T03:30:56.062Z,26.70
2022-07-31T03:33:23.109Z,26.79
2022-07-31T03:35:49.477Z,25.87
2022-07-31T03:38:39.236Z,27.94
2022-07-31T03:41:02.292Z,27.07
2022-07-31T03:43:28.709Z,26.85
2022-07-31T03:46:10.303Z,26.50
2022-07-31T03:48:36.708Z,26.73
2022-07-31T03:51:03.092Z,26.73
2022-07-31T03:53:29.559Z,26.36
2022-07-31T03:55:55.953Z,26.48
2022-07-31T03:58:22.332Z,26.53
2022-07-31T04:00:51.493Z,26.82
2022-07-31T04:03:18.161Z,26.51
2022-07-31T04:05:44.552Z,26.75
2022-07-31T04:08:10.989Z,25.98
2022-07-31T04:10:38.463Z,27.92
2022-07-31T04:13:04.910Z,27.43
2022-07-31T04:15:31.360Z,26.61
2022-07-31T04:17:57.770Z,26.48
2022-07-31T04:20:24.161Z,26.71
2022-07-31T04:22:50.586Z,26.59
2022-07-31T04:25:17.441Z,26.46
2022-07-31T04:27:47.933Z,26.43
2022-07-31T04:30:15.061Z,26.87
2022-07-31T04:32:41.488Z,26.61
2022-07-31T04:35:07.873Z,26.79
2022-07-31T04:37:34.482Z,26.71
2022-07-31T04:40:00.868Z,26.07
2022-07-31T04:42:27.263Z,27.93
2022-07-31T04:44:59.083Z,27.32
2022-07-31T04:47:25.488Z,26.77
2022-07-31T04:49:51.906Z,26.60
2022-07-31T04:52:18.374Z,26.29
2022-07-31T04:54:47.209Z,26.64
2022-07-31T04:57:14.894Z,26.44
2022-07-31T04:59:58.642Z,26.41
2022-07-31T05:02:27.481Z,26.65
2022-07-31T05:04:56.920Z,26.55
2022-07-31T05:07:25.868Z,26.61
2022-07-31T05:09:55.221Z,26.76
2022-07-31T05:12:21.627Z,25.85
2022-07-31T05:14:48.024Z,28.18
2022-07-31T05:17:15.558Z,27.47
2022-07-31T05:19:41.952Z,26.93
2022-07-31T05:22:08.647Z,26.57
2022-07-31T05:24:35.820Z,26.44
2022-07-31T05:27:02.216Z,26.44
2022-07-31T05:29:28.629Z,26.42
2022-07-31T05:31:59.885Z,26.37
2022-07-31T05:34:27.307Z,26.64
2022-07-31T05:36:56.389Z,26.53
2022-07-31T05:39:22.809Z,26.60
2022-07-31T05:41:49.213Z,26.67
2022-07-31T05:44:15.645Z,26.47
2022-07-31T05:46:42.044Z,26.62
2022-07-31T05:49:08.524Z,27.92
2022-07-31T05:51:34.994Z,27.06
2022-07-31T05:54:01.400Z,26.61
2022-07-31T05:56:27.797Z,26.53
2022-07-31T05:58:56.522Z,26.62
2022-07-31T06:01:22.978Z,26.59
2022-07-31T06:03:52.682Z,26.57
2022-07-31T06:06:19.239Z,26.74
2022-07-31T06:08:45.631Z,26.63
2022-07-31T06:11:12.035Z,26.60
2022-07-31T06:13:38.463Z,26.84
2022-07-31T06:16:04.929Z,26.70
2022-07-31T06:18:31.342Z,26.13
2022-07-31T06:20:57.894Z,27.70
2022-07-31T06:23:29.765Z,27.57
2022-07-31T06:26:00.726Z,26.65
2022-07-31T06:28:33.826Z,26.61
2022-07-31T06:31:13.525Z,26.74
2022-07-31T06:33:41.815Z,26.53
2022-07-31T06:36:14.699Z,26.70
2022-07-31T06:38:41.092Z,26.31
2022-07-31T06:41:07.510Z,26.74
2022-07-31T06:43:33.948Z,26.49
2022-07-31T06:46:00.338Z,26.42
2022-07-31T06:48:26.772Z,26.67
2022-07-31T06:51:14.441Z,25.93
2022-07-31T06:53:48.539Z,27.74
2022-07-31T06:56:15.006Z,27.23
2022-07-31T06:58:41.407Z,26.84
2022-07-31T07:01:07.846Z,26.77
2022-07-31T07:03:34.303Z,26.60
2022-07-31T07:06:00.709Z,26.31
2022-07-31T07:08:27.103Z,26.37
2022-07-31T07:10:53.564Z,26.27
2022-07-31T07:13:20.010Z,26.40
2022-07-31T07:15:46.414Z,26.46
2022-07-31T07:18:12.845Z,26.34
2022-07-31T07:20:39.257Z,26.29
2022-07-31T07:23:05.637Z,26.04
2022-07-31T07:25:32.184Z,27.79
2022-07-31T07:27:58.591Z,26.95
2022-07-31T07:30:25.063Z,26.59
2022-07-31T07:32:51.495Z,26.01
2022-07-31T07:35:17.875Z,26.29
2022-07-31T07:37:44.241Z,26.09
2022-07-31T07:40:10.770Z,25.81
2022-07-31T07:42:37.159Z,25.94
2022-07-31T07:45:08.346Z,26.01
2022-07-31T07:47:53.832Z,26.03
2022-07-31T07:50:21.321Z,25.78
2022-07-31T07:52:47.826Z,25.83
2022-07-31T07:55:14.256Z,25.11
2022-07-31T07:57:40.667Z,27.38
2022-07-31T08:00:07.109Z,26.36
2022-07-31T08:02:33.498Z,25.75
2022-07-31T08:04:59.903Z,25.77
2022-07-31T08:07:26.366Z,25.61
2022-07-31T08:10:09.313Z,25.75
2022-07-31T08:12:36.832Z,25.52
2022-07-31T08:15:03.238Z,25.50
2022-07-31T08:17:30.727Z,25.37
2022-07-31T08:19:57.193Z,25.62
2022-07-31T08:22:23.580Z,25.53
2022-07-31T08:24:50.073Z,25.30
2022-07-31T08:27:19.301Z,24.90
2022-07-31T08:29:47.933Z,26.85
2022-07-31T08:32:17.347Z,26.08
2022-07-31T08:34:43.767Z,25.60
2022-07-31T08:37:59.297Z,25.52
2022-07-31T08:39:57.091Z,25.42
2022-07-31T08:42:23.539Z,25.13
2022-07-31T08:44:49.926Z,25.08
2022-07-31T08:47:16.384Z,25.11
2022-07-31T08:49:42.761Z,25.12
2022-07-31T08:52:09.166Z,25.33
2022-07-31T08:54:35.621Z,25.52
2022-07-31T08:57:02.270Z,25.16
2022-07-31T08:59:28.887Z,25.09
2022-07-31T09:01:56.427Z,27.07
2022-07-31T09:04:22.818Z,26.14
2022-07-31T09:06:49.196Z,25.56
2022-07-31T09:09:15.633Z,25.35
2022-07-31T09:11:42.054Z,25.00
2022-07-31T09:14:08.473Z,25.31
2022-07-31T09:16:34.908Z,25.28
2022-07-31T09:19:01.306Z,25.27
2022-07-31T09:21:27.731Z,25.18
2022-07-31T09:23:54.259Z,25.46
2022-07-31T09:26:22.567Z,25.19
2022-07-31T09:28:48.949Z,25.22
2022-07-31T09:31:15.391Z,24.68
2022-07-31T09:33:45.625Z,26.87
2022-07-31T09:36:12.456Z,26.30
2022-07-31T09:38:38.907Z,25.42
2022-07-31T09:41:16.594Z,25.41
2022-07-31T09:43:52.199Z,25.01
2022-07-31T09:46:18.649Z,25.38
2022-07-31T09:48:45.027Z,25.13
2022-07-31T09:51:11.478Z,25.17
2022-07-31T09:53:43.027Z,25.06
2022-07-31T09:56:09.855Z,25.15
2022-07-31T09:58:36.305Z,25.36
2022-07-31T10:01:02.761Z,25.04
2022-07-31T10:03:29.193Z,24.82
2022-07-31T10:05:57.025Z,26.57
2022-07-31T10:08:26.429Z,26.21
2022-07-31T10:10:52.847Z,25.57
2022-07-31T10:13:19.265Z,25.14
2022-07-31T10:15:46.758Z,24.85
2022-07-31T10:18:13.154Z,25.00
2022-07-31T10:20:39.591Z,24.94
2022-07-31T10:23:05.978Z,24.90
2022-07-31T10:25:32.387Z,25.06
2022-07-31T10:27:58.856Z,24.86
2022-07-31T10:30:28.126Z,24.95
2022-07-31T10:32:55.114Z,24.92
2022-07-31T10:35:21.621Z,25.12
2022-07-31T10:37:48.017Z,25.49
2022-07-31T10:40:14.394Z,26.53
2022-07-31T10:42:42.092Z,25.40
2022-07-31T10:45:08.522Z,24.88
2022-07-31T10:47:34.911Z,24.75
2022-07-31T10:50:01.349Z,24.49
2022-07-31T10:52:27.761Z,24.60
2022-07-31T10:54:54.150Z,24.67
2022-07-31T10:57:20.621Z,24.29
2022-07-31T10:59:47.034Z,24.63
2022-07-31T11:02:13.498Z,24.29
2022-07-31T11:04:40.089Z,24.46
2022-07-31T11:07:06.710Z,24.18
2022-07-31T11:09:33.345Z,23.96
2022-07-31T11:12:17.156Z,26.16
2022-07-31T11:14:43.547Z,25.01
2022-07-31T11:17:09.962Z,24.43
2022-07-31T11:19:36.477Z,24.14
2022-07-31T11:22:30.690Z,24.33
2022-07-31T11:24:54.319Z,24.48
2022-07-31T11:27:20.760Z,24.49
2022-07-31T11:29:59.395Z,24.45
2022-07-31T11:32:28.611Z,24.28
2022-07-31T11:34:55.003Z,24.39
2022-07-31T11:37:21.398Z,24.35
2022-07-31T11:39:51.332Z,24.26
2022-07-31T11:42:18.156Z,24.52
2022-07-31T11:44:44.542Z,24.93
2022-07-31T11:48:10.294Z,25.89
2022-07-31T11:49:57.447Z,24.58
2022-07-31T11:52:31.220Z,24.15
2022-07-31T11:55:08.554Z,23.98
2022-07-31T11:57:52.545Z,23.94
2022-07-31T12:00:29.250Z,24.12
2022-07-31T12:02:56.471Z,24.26
2022-07-31T12:05:38.762Z,24.10
2022-07-31T12:08:05.860Z,24.01
2022-07-31T12:10:32.314Z,24.22
2022-07-31T12:12:59.797Z,24.13
2022-07-31T12:15:26.244Z,24.24
2022-07-31T12:17:52.623Z,23.55
2022-07-31T12:20:34.481Z,26.01
2022-07-31T12:23:02.133Z,25.07
2022-07-31T12:25:28.515Z,24.69
2022-07-31T12:27:54.939Z,24.17
2022-07-31T12:30:21.437Z,24.26
2022-07-31T12:32:47.853Z,24.22
2022-07-31T12:35:14.241Z,24.34
2022-07-31T12:37:40.703Z,24.39
2022-07-31T12:40:07.146Z,24.49
2022-07-31T12:42:39.130Z,24.31
2022-07-31T12:45:20.138Z,24.47
2022-07-31T12:47:51.603Z,24.57
2022-07-31T12:50:19.111Z,24.48
2022-07-31T12:52:45.488Z,24.59
2022-07-31T12:55:11.923Z,26.11
2022-07-31T12:57:47.831Z,25.25
2022-07-31T13:00:18.477Z,24.72
2022-07-31T13:02:44.920Z,24.75
2022-07-31T13:05:12.708Z,24.65
2022-07-31T13:07:39.107Z,24.52
2022-07-31T13:10:21.700Z,24.51
2022-07-31T13:12:50.694Z,24.65
2022-07-31T13:15:17.171Z,24.63
2022-07-31T13:17:50.158Z,24.78
2022-07-31T13:20:17.169Z,24.62
2022-07-31T13:22:43.590Z,24.66
2022-07-31T13:25:09.968Z,24.49
2022-07-31T13:27:36.474Z,25.74
2022-07-31T13:30:02.863Z,26.05
2022-07-31T13:32:30.057Z,25.21
2022-07-31T13:35:19.454Z,25.11
2022-07-31T13:37:43.180Z,24.82
2022-07-31T13:40:09.657Z,24.62
2022-07-31T13:42:36.928Z,24.64
2022-07-31T13:45:07.965Z,24.95
2022-07-31T13:47:51.298Z,24.80
2022-07-31T13:50:18.263Z,24.85
2022-07-31T13:52:44.699Z,24.70
2022-07-31T13:55:11.089Z,24.97
2022-07-31T13:57:38.590Z,24.87
2022-07-31T14:00:05.029Z,24.17
2022-07-31T14:02:33.765Z,26.28
2022-07-31T14:05:00.197Z,25.82
2022-07-31T14:07:48.164Z,25.07
2022-07-31T14:10:18.500Z,25.01
2022-07-31T14:12:46.812Z,24.70
2022-07-31T14:15:13.229Z,24.65
2022-07-31T14:17:39.604Z,24.74
2022-07-31T14:20:06.144Z,24.65
2022-07-31T14:22:33.668Z,25.01
2022-07-31T14:25:00.087Z,24.74
2022-07-31T14:27:26.650Z,24.63
2022-07-31T14:29:55.161Z,24.89
2022-07-31T14:32:21.630Z,24.90
2022-07-31T14:34:48.093Z,24.46
2022-07-31T14:37:14.484Z,26.63
2022-07-31T14:39:42.847Z,25.87
2022-07-31T14:42:09.682Z,25.07
2022-07-31T14:44:36.058Z,25.05
2022-07-31T14:47:04.653Z,24.63
2022-07-31T14:50:07.588Z,24.85
2022-07-31T14:52:17.748Z,25.01
2022-07-31T14:54:44.177Z,24.81
2022-07-31T14:57:12.490Z,24.89
2022-07-31T14:59:47.506Z,24.83
2022-07-31T15:02:15.660Z,24.92
2022-07-31T15:04:43.917Z,24.85
2022-07-31T15:07:34.199Z,24.94
2022-07-31T15:09:56.730Z,25.90
2022-07-31T15:12:23.187Z,26.28
2022-07-31T15:14:49.572Z,25.56
2022-07-31T15:17:15.961Z,25.12
2022-07-31T15:19:42.421Z,25.21
2022-07-31T15:22:11.082Z,25.06
2022-07-31T15:24:49.229Z,24.83
2022-07-31T15:27:16.141Z,24.90
2022-07-31T15:30:00.142Z,24.87
2022-07-31T15:32:29.022Z,25.03
2022-07-31T15:34:55.414Z,25.20
2022-07-31T15:37:21.809Z,24.96
2022-07-31T15:40:01.401Z,25.11
2022-07-31T15:42:29.884Z,24.39
2022-07-31T15:44:56.301Z,26.50
2022-07-31T15:47:24.560Z,26.08
2022-07-31T15:49:50.956Z,25.23
2022-07-31T15:52:19.988Z,25.37
2022-07-31T15:54:47.552Z,25.09
2022-07-31T15:57:18.421Z,25.05
2022-07-31T15:59:44.843Z,24.96
2022-07-31T16:02:11.250Z,24.92
2022-07-31T16:04:46.411Z,24.95
2022-07-31T16:08:32.919Z,25.19
2022-07-31T16:10:16.519Z,25.30
2022-07-31T16:12:43.821Z,24.90
2022-07-31T16:15:10.272Z,25.16
2022-07-31T16:17:40.865Z,25.34
2022-07-31T16:20:10.985Z,26.50
2022-07-31T16:22:37.472Z,25.64
2022-07-31T16:25:03.877Z,25.20
2022-07-31T16:27:30.260Z,25.18
2022-07-31T16:29:59.274Z,25.11
2022-07-31T16:32:28.159Z,25.00
2022-07-31T16:34:59.816Z,25.13
2022-07-31T16:37:51.951Z,25.17
2022-07-31T16:40:28.365Z,25.11
2022-07-31T16:42:56.096Z,25.06
2022-07-31T16:45:24.341Z,24.97
2022-07-31T16:47:51.467Z,25.06
2022-07-31T16:50:18.290Z,24.54
2022-07-31T16:52:44.696Z,26.72
2022-07-31T16:55:11.094Z,26.33
2022-07-31T16:57:40.018Z,25.62
2022-07-31T17:00:06.413Z,25.34
2022-07-31T17:02:32.819Z,25.32
2022-07-31T17:05:00.791Z,24.98
2022-07-31T17:07:28.528Z,24.92
2022-07-31T17:09:54.909Z,25.07
2022-07-31T17:12:21.344Z,25.05
2022-07-31T17:14:47.795Z,25.22
2022-07-31T17:17:14.196Z,25.23
2022-07-31T17:19:45.843Z,25.06
2022-07-31T17:22:18.083Z,25.38
2022-07-31T17:24:45.290Z,24.60
2022-07-31T17:27:11.683Z,26.72
2022-07-31T17:29:38.134Z,25.95
2022-07-31T17:32:04.642Z,25.60
2022-07-31T17:34:31.043Z,25.44
2022-07-31T17:36:58.558Z,25.26
2022-07-31T17:39:30.061Z,25.15
2022-07-31T17:41:57.149Z,25.01
2022-07-31T17:44:23.545Z,25.38
2022-07-31T17:46:50.649Z,25.22
2022-07-31T17:49:19.471Z,25.33
2022-07-31T17:51:58.868Z,25.38
2022-07-31T17:54:26.537Z,25.18
2022-07-31T17:56:54.267Z,25.36
2022-07-31T17:59:20.657Z,26.10
2022-07-31T18:01:51.916Z,26.45
2022-07-31T18:04:20.064Z,25.53
2022-07-31T18:06:57.006Z,25.47
2022-07-31T18:09:26.243Z,25.29
2022-07-31T18:11:54.591Z,25.28
2022-07-31T18:14:25.251Z,25.24
2022-07-31T18:16:51.701Z,25.28
2022-07-31T18:19:20.425Z,25.09
2022-07-31T18:21:46.832Z,25.40
2022-07-31T18:24:15.589Z,25.40
2022-07-31T18:26:41.967Z,25.11
2022-07-31T18:29:08.386Z,25.34
2022-07-31T18:31:35.897Z,24.74
2022-07-31T18:34:04.561Z,26.74
2022-07-31T18:36:30.962Z,26.32
2022-07-31T18:38:57.405Z,25.55
2022-07-31T18:41:23.827Z,25.46
2022-07-31T18:43:50.229Z,25.29
2022-07-31T18:46:16.664Z,25.43
2022-07-31T18:48:43.075Z,25.40
2022-07-31T18:51:09.534Z,25.45
2022-07-31T18:53:36.091Z,25.20
2022-07-31T18:56:02.480Z,25.58
2022-07-31T18:58:33.364Z,25.33
2022-07-31T19:00:59.833Z,25.18
2022-07-31T19:03:26.251Z,25.16
2022-07-31T19:05:52.717Z,24.54
2022-07-31T19:08:22.513Z,26.69
2022-07-31T19:10:50.009Z,26.02
2022-07-31T19:13:19.364Z,25.45
2022-07-31T19:15:46.017Z,25.59
2022-07-31T19:18:12.728Z,25.25
2022-07-31T19:20:58.852Z,25.24
2022-07-31T19:23:27.056Z,25.40
2022-07-31T19:26:03.162Z,25.22
2022-07-31T19:28:32.314Z,25.67
2022-07-31T19:31:02.356Z,25.46
2022-07-31T19:33:29.849Z,25.22
2022-07-31T19:36:01.312Z,25.47
2022-07-31T19:38:28.931Z,25.42
2022-07-31T19:40:55.443Z,26.24
2022-07-31T19:43:26.048Z,26.79
2022-07-31T19:46:10.042Z,25.97
2022-07-31T19:48:38.589Z,25.43
2022-07-31T19:51:08.086Z,25.30
2022-07-31T19:53:34.792Z,25.19
2022-07-31T19:56:02.383Z,25.21
2022-07-31T19:58:28.785Z,25.39
2022-07-31T20:00:55.213Z,25.48
2022-07-31T20:03:21.716Z,25.28
2022-07-31T20:05:48.157Z,25.55
2022-07-31T20:08:14.558Z,25.46
2022-07-31T20:10:40.994Z,25.25
2022-07-31T20:13:08.488Z,24.83
2022-07-31T20:15:51.452Z,26.90
2022-07-31T20:18:26.828Z,26.05
2022-07-31T20:20:56.757Z,25.79
2022-07-31T20:23:24.666Z,25.63
2022-07-31T20:25:51.053Z,25.51
2022-07-31T20:28:18.815Z,25.34
2022-07-31T20:30:46.412Z,25.40
2022-07-31T20:33:13.339Z,25.50
2022-07-31T20:35:47.884Z,25.35
2022-07-31T20:38:16.050Z,25.47
2022-07-31T20:40:42.634Z,25.58
2022-07-31T20:43:19.205Z,25.44
2022-07-31T20:45:45.649Z,25.28
2022-07-31T20:48:13.179Z,24.83
2022-07-31T20:50:41.935Z,26.71
2022-07-31T20:53:10.853Z,26.08
2022-07-31T20:55:38.341Z,25.61
2022-07-31T20:58:04.869Z,25.49
2022-07-31T21:00:32.364Z,25.40
2022-07-31T21:02:58.757Z,25.22
2022-07-31T21:05:26.903Z,25.57
2022-07-31T21:07:53.794Z,25.27
2022-07-31T21:10:20.194Z,25.48
2022-07-31T21:12:46.657Z,25.32
2022-07-31T21:15:43.409Z,25.60
2022-07-31T21:17:59.475Z,25.55
2022-07-31T21:20:29.182Z,25.50
2022-07-31T21:23:12.406Z,26.59
2022-07-31T21:25:40.194Z,26.65
2022-07-31T21:28:06.586Z,26.03
2022-07-31T21:30:35.359Z,25.44
2022-07-31T21:33:01.757Z,25.56
2022-07-31T21:35:36.773Z,25.43
2022-07-31T21:38:03.914Z,25.40
2022-07-31T21:40:30.287Z,25.35
2022-07-31T21:42:57.277Z,25.61
2022-07-31T21:45:23.932Z,25.34
2022-07-31T21:47:52.407Z,25.32
2022-07-31T21:50:28.965Z,25.37
2022-07-31T21:52:55.952Z,25.74
2022-07-31T21:55:22.343Z,24.77
2022-07-31T21:57:57.240Z,27.02
2022-07-31T22:00:29.146Z,26.21
2022-07-31T22:02:56.226Z,25.47
2022-07-31T22:05:22.615Z,25.43
2022-07-31T22:07:49.162Z,25.42
2022-07-31T22:10:18.515Z,25.35
2022-07-31T22:12:44.899Z,25.35
2022-07-31T22:15:15.297Z,25.69
2022-07-31T22:17:42.096Z,25.64
2022-07-31T22:20:08.525Z,25.47
2022-07-31T22:22:35.005Z,25.55
2022-07-31T22:25:01.412Z,25.44
2022-07-31T22:27:27.801Z,25.36
2022-07-31T22:29:55.597Z,26.21
2022-07-31T22:32:21.988Z,26.85
2022-07-31T22:34:48.586Z,25.93
2022-07-31T22:37:15.053Z,25.76
2022-07-31T22:39:41.442Z,25.43
2022-07-31T22:42:08.111Z,25.48
2022-07-31T22:44:34.837Z,25.27
2022-07-31T22:47:01.228Z,25.32
2022-07-31T22:49:27.662Z,25.58
2022-07-31T22:51:54.131Z,25.33
2022-07-31T22:54:20.512Z,25.45
2022-07-31T22:56:46.919Z,25.58
2022-07-31T22:59:13.377Z,25.45
2022-07-31T23:01:39.798Z,24.82
2022-07-31T23:04:06.228Z,27.05
2022-07-31T23:06:32.952Z,26.67
2022-07-31T23:08:59.357Z,25.87
2022-07-31T23:11:25.733Z,25.67
2022-07-31T23:13:52.203Z,25.65
2022-07-31T23:16:18.584Z,25.35
2022-07-31T23:18:44.965Z,25.27
2022-07-31T23:21:11.577Z,25.57
2022-07-31T23:23:37.964Z,25.56
2022-07-31T23:26:04.442Z,25.49
2022-07-31T23:28:31.005Z,25.53
2022-07-31T23:30:57.394Z,25.42
2022-07-31T23:33:23.761Z,25.62
2022-07-31T23:35:50.280Z,24.95
2022-07-31T23:38:16.690Z,27.00
2022-07-31T23:40:43.099Z,26.11
2022-07-31T23:43:10.653Z,25.95
2022-07-31T23:45:38.054Z,25.65
2022-07-31T23:48:04.487Z,25.32
2022-07-31T23:50:31.495Z,25.58
2022-07-31T23:52:57.876Z,25.56
2022-07-31T23:55:24.283Z,25.38
2022-07-31T23:57:50.785Z,25.57
